sensor_id;sensor_type;location;lat;lon;timestamp;pressure;altitude;pressure_sealevel;temperature;humidity
84936;BME280;75210;52.210;20.902;2024-03-08T00:00:28;101212.34;;;-0.39;78.53
84936;BME280;75210;52.210;20.902;2024-03-08T00:01:29;101195.84;;;-0.52;78.90
84936;BME280;75210;52.210;20.902;2024-03-08T00:02:29;101256.53;;;-0.18;79.70
84936;BME280;75210;52.210;20.902;2024-03-08T00:03:31;101225.31;;;-0.34;79.65
84936;BME280;75210;52.210;20.902;2024-03-08T00:04:31;101226.16;;;-0.36;80.23
84936;BME280;75210;52.210;20.902;2024-03-08T00:05:32;101226.19;;;-0.31;78.84
84936;BME280;75210;52.210;20.902;2024-03-08T00:06:32;101254.78;;;-0.19;79.35
84936;BME280;75210;52.210;20.902;2024-03-08T00:07:34;101214.03;;;-0.43;79.53
84936;BME280;75210;52.210;20.902;2024-03-08T00:08:35;101250.44;;;-0.23;79.93
84936;BME280;75210;52.210;20.902;2024-03-08T00:09:35;101213.09;;;-0.49;80.24
84936;BME280;75210;52.210;20.902;2024-03-08T00:10:36;101246.94;;;-0.29;80.39
84936;BME280;75210;52.210;20.902;2024-03-08T00:11:36;101248.66;;;-0.30;80.04
84936;BME280;75210;52.210;20.902;2024-03-08T00:12:37;101247.81;;;-0.29;79.83
84936;BME280;75210;52.210;20.902;2024-03-08T00:13:37;101227.81;;;-0.45;79.50
84936;BME280;75210;52.210;20.902;2024-03-08T00:14:37;101245.22;;;-0.30;79.84
84936;BME280;75210;52.210;20.902;2024-03-08T00:15:38;101182.75;;;-0.68;79.78
84936;BME280;75210;52.210;20.902;2024-03-08T00:16:38;101175.84;;;-0.69;79.39
84936;BME280;75210;52.210;20.902;2024-03-08T00:17:39;101180.22;;;-0.64;79.30
84936;BME280;75210;52.210;20.902;2024-03-08T00:18:39;101240.03;;;-0.24;79.17
84936;BME280;75210;52.210;20.902;2024-03-08T00:19:39;101233.09;;;-0.33;78.73
84936;BME280;75210;52.210;20.902;2024-03-08T00:20:40;101242.66;;;-0.23;78.56
84936;BME280;75210;52.210;20.902;2024-03-08T00:21:40;101181.94;;;-0.60;78.77
84936;BME280;75210;52.210;20.902;2024-03-08T00:22:42;101243.50;;;-0.27;79.05
84936;BME280;75210;52.210;20.902;2024-03-08T00:23:43;101242.63;;;-0.30;79.19
84936;BME280;75210;52.210;20.902;2024-03-08T00:24:43;101245.19;;;-0.33;79.23
84936;BME280;75210;52.210;20.902;2024-03-08T00:25:44;101232.19;;;-0.40;80.20
84936;BME280;75210;52.210;20.902;2024-03-08T00:26:44;101187.09;;;-0.67;79.56
84936;BME280;75210;52.210;20.902;2024-03-08T00:27:44;101244.31;;;-0.36;80.03
84936;BME280;75210;52.210;20.902;2024-03-08T00:28:45;101168.91;;;-0.77;79.57
84936;BME280;75210;52.210;20.902;2024-03-08T00:29:45;101156.75;;;-0.87;80.23
84936;BME280;75210;52.210;20.902;2024-03-08T00:30:46;101149.75;;;-0.95;80.24
84936;BME280;75210;52.210;20.902;2024-03-08T00:31:46;101235.59;;;-0.47;81.08
84936;BME280;75210;52.210;20.902;2024-03-08T00:32:47;101235.59;;;-0.47;80.28
84936;BME280;75210;52.210;20.902;2024-03-08T00:33:47;101239.03;;;-0.46;80.41
84936;BME280;75210;52.210;20.902;2024-03-08T00:34:47;101239.09;;;-0.42;80.44
84936;BME280;75210;52.210;20.902;2024-03-08T00:35:48;101241.69;;;-0.40;79.86
84936;BME280;75210;52.210;20.902;2024-03-08T00:36:48;101205.25;;;-0.61;79.36
84936;BME280;75210;52.210;20.902;2024-03-08T00:37:51;101242.56;;;-0.40;79.74
84936;BME280;75210;52.210;20.902;2024-03-08T00:38:51;101213.94;;;-0.56;79.74
84936;BME280;75210;52.210;20.902;2024-03-08T00:39:52;101236.44;;;-0.48;80.21
84936;BME280;75210;52.210;20.902;2024-03-08T00:40:52;101135.88;;;-1.06;79.57
84936;BME280;75210;52.210;20.902;2024-03-08T00:41:53;101156.66;;;-0.96;80.01
84936;BME280;75210;52.210;20.902;2024-03-08T00:42:53;101146.25;;;-1.03;79.86
84936;BME280;75210;52.210;20.902;2024-03-08T00:43:54;101233.00;;;-0.50;79.95
84936;BME280;75210;52.210;20.902;2024-03-08T00:44:54;101185.31;;;-0.78;79.04
84936;BME280;75210;52.210;20.902;2024-03-08T00:45:54;101234.72;;;-0.47;79.19
84936;BME280;75210;52.210;20.902;2024-03-08T00:46:55;101184.44;;;-0.77;79.40
84936;BME280;75210;52.210;20.902;2024-03-08T00:47:55;101236.44;;;-0.52;79.85
84936;BME280;75210;52.210;20.902;2024-03-08T00:48:56;101205.19;;;-0.72;80.16
84936;BME280;75210;52.210;20.902;2024-03-08T00:49:56;101217.34;;;-0.65;80.51
84936;BME280;75210;52.210;20.902;2024-03-08T00:50:57;101215.59;;;-0.67;80.20
84936;BME280;75210;52.210;20.902;2024-03-08T00:51:57;101232.88;;;-0.65;81.16
84936;BME280;75210;52.210;20.902;2024-03-08T00:53:01;101229.44;;;-0.64;80.86
84936;BME280;75210;52.210;20.902;2024-03-08T00:54:01;101230.28;;;-0.65;81.23
84936;BME280;75210;52.210;20.902;2024-03-08T00:55:02;101234.63;;;-0.62;81.18
84936;BME280;75210;52.210;20.902;2024-03-08T00:56:03;101231.16;;;-0.61;80.56
84936;BME280;75210;52.210;20.902;2024-03-08T00:57:04;101231.16;;;-0.60;81.12
84936;BME280;75210;52.210;20.902;2024-03-08T00:58:04;101223.41;;;-0.60;80.86
84936;BME280;75210;52.210;20.902;2024-03-08T00:59:06;101229.44;;;-0.59;80.73
84936;BME280;75210;52.210;20.902;2024-03-08T01:00:08;101224.25;;;-0.61;80.95
84936;BME280;75210;52.210;20.902;2024-03-08T01:01:08;101235.47;;;-0.60;80.72
84936;BME280;75210;52.210;20.902;2024-03-08T01:02:10;101227.72;;;-0.59;80.42
84936;BME280;75210;52.210;20.902;2024-03-08T01:03:10;101221.69;;;-0.62;80.32
84936;BME280;75210;52.210;20.902;2024-03-08T01:04:10;101225.94;;;-0.67;80.21
84936;BME280;75210;52.210;20.902;2024-03-08T01:05:11;101219.91;;;-0.68;80.26
84936;BME280;75210;52.210;20.902;2024-03-08T01:06:14;101182.59;;;-0.91;80.05
84936;BME280;75210;52.210;20.902;2024-03-08T01:07:14;101160.88;;;-1.09;80.41
84936;BME280;75210;52.210;20.902;2024-03-08T01:08:16;101214.59;;;-0.82;80.43
84936;BME280;75210;52.210;20.902;2024-03-08T01:09:17;101185.13;;;-1.00;80.62
84936;BME280;75210;52.210;20.902;2024-03-08T01:10:17;101226.75;;;-0.75;80.79
84936;BME280;75210;52.210;20.902;2024-03-08T01:11:18;101196.41;;;-0.91;80.46
84936;BME280;75210;52.210;20.902;2024-03-08T01:12:18;101208.59;;;-0.78;80.48
84936;BME280;75210;52.210;20.902;2024-03-08T01:13:19;101228.50;;;-0.70;80.32
84936;BME280;75210;52.210;20.902;2024-03-08T01:14:20;101212.91;;;-0.78;80.40
84936;BME280;75210;52.210;20.902;2024-03-08T01:15:20;101225.91;;;-0.70;79.96
84936;BME280;75210;52.210;20.902;2024-03-08T01:16:21;101219.00;;;-0.72;79.98
84936;BME280;75210;52.210;20.902;2024-03-08T01:17:21;101220.69;;;-0.74;80.25
84936;BME280;75210;52.210;20.902;2024-03-08T01:18:21;101162.63;;;-1.08;80.07
84936;BME280;75210;52.210;20.902;2024-03-08T01:19:22;101220.72;;;-0.75;80.37
84936;BME280;75210;52.210;20.902;2024-03-08T01:20:25;101178.22;;;-0.98;80.32
84936;BME280;75210;52.210;20.902;2024-03-08T01:21:26;101216.31;;;-0.82;80.99
84936;BME280;75210;52.210;20.902;2024-03-08T01:22:26;101201.63;;;-0.88;81.16
84936;BME280;75210;52.210;20.902;2024-03-08T01:23:28;101220.63;;;-0.83;81.26
84936;BME280;75210;52.210;20.902;2024-03-08T01:24:29;101191.13;;;-1.03;81.71
84936;BME280;75210;52.210;20.902;2024-03-08T01:25:29;101216.31;;;-0.82;81.35
84936;BME280;75210;52.210;20.902;2024-03-08T01:26:29;101198.16;;;-0.90;81.06
84936;BME280;75210;52.210;20.902;2024-03-08T01:27:30;101209.41;;;-0.83;81.36
84936;BME280;75210;52.210;20.902;2024-03-08T01:28:30;101202.47;;;-0.89;81.20
84936;BME280;75210;52.210;20.902;2024-03-08T01:29:31;101160.00;;;-1.12;81.60
84936;BME280;75210;52.210;20.902;2024-03-08T01:30:31;101166.91;;;-1.08;81.13
84936;BME280;75210;52.210;20.902;2024-03-08T01:31:32;101209.38;;;-0.86;81.17
84936;BME280;75210;52.210;20.902;2024-03-08T01:32:32;101142.63;;;-1.22;80.89
84936;BME280;75210;52.210;20.902;2024-03-08T01:33:32;101208.56;;;-0.81;81.11
84936;BME280;75210;52.210;20.902;2024-03-08T01:34:33;101147.88;;;-1.16;80.51
84936;BME280;75210;52.210;20.902;2024-03-08T01:35:33;101212.88;;;-0.81;80.54
84936;BME280;75210;52.210;20.902;2024-03-08T01:36:34;101213.75;;;-0.81;80.03
84936;BME280;75210;52.210;20.902;2024-03-08T01:37:34;101211.16;;;-0.82;80.33
84936;BME280;75210;52.210;20.902;2024-03-08T01:38:36;101205.97;;;-0.82;80.34
84936;BME280;75210;52.210;20.902;2024-03-08T01:39:37;101212.88;;;-0.81;79.86
84936;BME280;75210;52.210;20.902;2024-03-08T01:40:37;101211.16;;;-0.82;80.06
84936;BME280;75210;52.210;20.902;2024-03-08T01:41:37;101202.50;;;-0.87;80.50
84936;BME280;75210;52.210;20.902;2024-03-08T01:42:39;101181.69;;;-0.95;80.31
84936;BME280;75210;52.210;20.902;2024-03-08T01:43:40;101209.41;;;-0.83;80.41
84936;BME280;75210;52.210;20.902;2024-03-08T01:44:40;101186.00;;;-0.97;80.12
84936;BME280;75210;52.210;20.902;2024-03-08T01:45:40;101218.03;;;-0.84;80.32
84936;BME280;75210;52.210;20.902;2024-03-08T01:46:41;101206.81;;;-0.83;80.64
84936;BME280;75210;52.210;20.902;2024-03-08T01:47:41;101210.28;;;-0.83;80.10
84936;BME280;75210;52.210;20.902;2024-03-08T01:48:42;101204.19;;;-0.91;80.43
84936;BME280;75210;52.210;20.902;2024-03-08T01:49:43;101205.03;;;-0.92;79.69
84936;BME280;75210;52.210;20.902;2024-03-08T01:50:44;101211.97;;;-0.85;80.37
84936;BME280;75210;52.210;20.902;2024-03-08T01:51:46;101181.69;;;-0.99;80.72
84936;BME280;75210;52.210;20.902;2024-03-08T01:52:47;101204.22;;;-0.88;80.21
84936;BME280;75210;52.210;20.902;2024-03-08T01:53:49;101204.16;;;-0.92;80.48
84936;BME280;75210;52.210;20.902;2024-03-08T01:54:49;101210.16;;;-0.98;81.07
84936;BME280;75210;52.210;20.902;2024-03-08T01:55:52;101207.56;;;-0.96;81.31
84936;BME280;75210;52.210;20.902;2024-03-08T01:56:54;101208.47;;;-0.93;80.96
84936;BME280;75210;52.210;20.902;2024-03-08T01:57:55;101205.88;;;-0.93;80.59
84936;BME280;75210;52.210;20.902;2024-03-08T01:58:55;101206.78;;;-0.89;80.26
84936;BME280;75210;52.210;20.902;2024-03-08T01:59:56;101205.94;;;-0.88;80.88
84936;BME280;75210;52.210;20.902;2024-03-08T02:00:57;101203.34;;;-0.90;80.27
84936;BME280;75210;52.210;20.902;2024-03-08T02:02:01;101185.13;;;-1.00;80.67
84936;BME280;75210;52.210;20.902;2024-03-08T02:03:02;101205.00;;;-0.95;80.84
84936;BME280;75210;52.210;20.902;2024-03-08T02:04:03;101145.09;;;-1.39;81.46
84936;BME280;75210;52.210;20.902;2024-03-08T02:05:04;101199.72;;;-1.05;81.81
84936;BME280;75210;52.210;20.902;2024-03-08T02:06:05;101198.88;;;-1.04;81.61
84936;BME280;75210;52.210;20.902;2024-03-08T02:07:05;101196.28;;;-1.04;81.55
84936;BME280;75210;52.210;20.902;2024-03-08T02:08:06;101196.28;;;-1.04;81.76
84936;BME280;75210;52.210;20.902;2024-03-08T02:09:10;101196.31;;;-1.03;81.62
84936;BME280;75210;52.210;20.902;2024-03-08T02:10:11;101203.19;;;-1.05;82.13
84936;BME280;75210;52.210;20.902;2024-03-08T02:11:11;101196.25;;;-1.08;81.96
84936;BME280;75210;52.210;20.902;2024-03-08T02:12:12;101176.34;;;-1.16;81.90
84936;BME280;75210;52.210;20.902;2024-03-08T02:13:13;101192.84;;;-1.05;81.62
84936;BME280;75210;52.210;20.902;2024-03-08T02:14:13;101189.41;;;-1.02;81.60
84936;BME280;75210;52.210;20.902;2024-03-08T02:15:14;101185.97;;;-1.03;81.94
84936;BME280;75210;52.210;20.902;2024-03-08T02:16:20;101187.66;;;-1.05;81.50
84936;BME280;75210;52.210;20.902;2024-03-08T02:17:20;101191.16;;;-1.01;81.39
84936;BME280;75210;52.210;20.902;2024-03-08T02:18:24;101188.50;;;-1.08;81.47
84936;BME280;75210;52.210;20.902;2024-03-08T02:19:25;101140.00;;;-1.28;81.20
84936;BME280;75210;52.210;20.902;2024-03-08T02:20:29;101186.84;;;-1.01;81.28
84936;BME280;75210;52.210;20.902;2024-03-08T02:21:30;101168.63;;;-1.12;80.88
84936;BME280;75210;52.210;20.902;2024-03-08T02:22:30;101190.28;;;-1.02;81.26
84936;BME280;75210;52.210;20.902;2024-03-08T02:23:31;101188.53;;;-1.04;81.09
84936;BME280;75210;52.210;20.902;2024-03-08T02:24:32;101188.50;;;-1.06;80.65
84936;BME280;75210;52.210;20.902;2024-03-08T02:25:33;101183.31;;;-1.08;80.83
84936;BME280;75210;52.210;20.902;2024-03-08T02:26:34;101181.56;;;-1.10;81.12
84936;BME280;75210;52.210;20.902;2024-03-08T02:27:34;101194.53;;;-1.12;81.03
84936;BME280;75210;52.210;20.902;2024-03-08T02:28:34;101178.97;;;-1.13;81.08
84936;BME280;75210;52.210;20.902;2024-03-08T02:29:36;101180.69;;;-1.15;81.03
84936;BME280;75210;52.210;20.902;2024-03-08T02:30:37;101174.56;;;-1.25;81.10
84936;BME280;75210;52.210;20.902;2024-03-08T02:31:37;101179.75;;;-1.20;81.58
84936;BME280;75210;52.210;20.902;2024-03-08T02:32:37;101184.06;;;-1.21;81.57
84936;BME280;75210;52.210;20.902;2024-03-08T02:33:38;101183.19;;;-1.23;82.22
84936;BME280;75210;52.210;20.902;2024-03-08T02:34:38;101167.56;;;-1.32;81.93
84936;BME280;75210;52.210;20.902;2024-03-08T02:35:40;101115.50;;;-1.68;82.21
84936;BME280;75210;52.210;20.902;2024-03-08T02:36:41;101189.16;;;-1.30;82.38
84936;BME280;75210;52.210;20.902;2024-03-08T02:37:41;101183.09;;;-1.32;82.62
84936;BME280;75210;52.210;20.902;2024-03-08T02:38:41;101136.28;;;-1.61;82.76
84936;BME280;75210;52.210;20.902;2024-03-08T02:39:42;101178.00;;;-1.24;82.19
84936;BME280;75210;52.210;20.902;2024-03-08T02:40:42;101170.19;;;-1.30;82.27
84936;BME280;75210;52.210;20.902;2024-03-08T02:41:43;101175.41;;;-1.23;82.65
84936;BME280;75210;52.210;20.902;2024-03-08T02:42:43;101183.19;;;-1.23;82.30
84936;BME280;75210;52.210;20.902;2024-03-08T02:43:44;101145.94;;;-1.41;82.32
84936;BME280;75210;52.210;20.902;2024-03-08T02:44:44;101185.78;;;-1.21;82.34
84936;BME280;75210;52.210;20.902;2024-03-08T02:45:45;101174.53;;;-1.26;82.83
84936;BME280;75210;52.210;20.902;2024-03-08T02:46:45;101181.41;;;-1.28;82.49
84936;BME280;75210;52.210;20.902;2024-03-08T02:47:46;101189.13;;;-1.31;82.67
84936;BME280;75210;52.210;20.902;2024-03-08T02:48:46;101114.59;;;-1.70;82.87
84936;BME280;75210;52.210;20.902;2024-03-08T02:49:47;101126.75;;;-1.65;83.11
84936;BME280;75210;52.210;20.902;2024-03-08T02:50:49;101185.75;;;-1.27;82.82
84936;BME280;75210;52.210;20.902;2024-03-08T02:51:49;101125.06;;;-1.61;82.66
84936;BME280;75210;52.210;20.902;2024-03-08T02:52:50;101150.25;;;-1.40;82.03
84936;BME280;75210;52.210;20.902;2024-03-08T02:53:50;101184.03;;;-1.27;82.13
84936;BME280;75210;52.210;20.902;2024-03-08T02:54:50;101132.03;;;-1.53;82.21
84936;BME280;75210;52.210;20.902;2024-03-08T02:55:51;101177.97;;;-1.27;82.20
84936;BME280;75210;52.210;20.902;2024-03-08T02:56:51;101176.25;;;-1.27;82.32
84936;BME280;75210;52.210;20.902;2024-03-08T02:57:52;101180.56;;;-1.27;82.48
84936;BME280;75210;52.210;20.902;2024-03-08T02:58:52;101184.03;;;-1.27;82.14
84936;BME280;75210;52.210;20.902;2024-03-08T02:59:53;101174.56;;;-1.25;82.47
84936;BME280;75210;52.210;20.902;2024-03-08T03:00:53;101135.53;;;-1.49;82.30
84936;BME280;75210;52.210;20.902;2024-03-08T03:01:54;101168.50;;;-1.25;82.50
84936;BME280;75210;52.210;20.902;2024-03-08T03:02:54;101139.84;;;-1.45;82.13
84936;BME280;75210;52.210;20.902;2024-03-08T03:03:54;101171.94;;;-1.26;82.31
84936;BME280;75210;52.210;20.902;2024-03-08T03:04:55;101160.69;;;-1.31;82.26
84936;BME280;75210;52.210;20.902;2024-03-08T03:05:57;101166.78;;;-1.25;82.45
84936;BME280;75210;52.210;20.902;2024-03-08T03:06:57;101169.38;;;-1.22;81.89
84936;BME280;75210;52.210;20.902;2024-03-08T03:07:58;101177.16;;;-1.20;82.07
84936;BME280;75210;52.210;20.902;2024-03-08T03:08:58;101166.81;;;-1.20;81.81
84936;BME280;75210;52.210;20.902;2024-03-08T03:09:59;101173.72;;;-1.19;81.86
84936;BME280;75210;52.210;20.902;2024-03-08T03:10:59;101172.88;;;-1.20;81.63
84936;BME280;75210;52.210;20.902;2024-03-08T03:12:00;101158.09;;;-1.30;81.72
84936;BME280;75210;52.210;20.902;2024-03-08T03:13:00;101158.97;;;-1.31;81.60
84936;BME280;75210;52.210;20.902;2024-03-08T03:14:00;101177.13;;;-1.26;81.53
84936;BME280;75210;52.210;20.902;2024-03-08T03:15:01;101116.38;;;-1.66;81.37
84936;BME280;75210;52.210;20.902;2024-03-08T03:16:01;101176.19;;;-1.31;81.83
84936;BME280;75210;52.210;20.902;2024-03-08T03:17:02;101140.66;;;-1.54;82.16
84936;BME280;75210;52.210;20.902;2024-03-08T03:18:02;101173.56;;;-1.37;81.91
84936;BME280;75210;52.210;20.902;2024-03-08T03:19:03;101125.03;;;-1.64;82.04
84936;BME280;75210;52.210;20.902;2024-03-08T03:20:05;101181.34;;;-1.37;82.00
84936;BME280;75210;52.210;20.902;2024-03-08T03:21:08;101170.97;;;-1.39;81.87
84936;BME280;75210;52.210;20.902;2024-03-08T03:22:08;101177.00;;;-1.38;82.01
84936;BME280;75210;52.210;20.902;2024-03-08T03:23:09;101177.00;;;-1.38;82.20
84936;BME280;75210;52.210;20.902;2024-03-08T03:24:09;101175.28;;;-1.39;82.04
84936;BME280;75210;52.210;20.902;2024-03-08T03:25:10;101168.38;;;-1.40;81.79
84936;BME280;75210;52.210;20.902;2024-03-08T03:26:10;101170.09;;;-1.39;82.42
84936;BME280;75210;52.210;20.902;2024-03-08T03:27:11;101140.56;;;-1.60;82.51
84936;BME280;75210;52.210;20.902;2024-03-08T03:28:11;101177.00;;;-1.38;82.02
84936;BME280;75210;52.210;20.902;2024-03-08T03:29:11;101161.44;;;-1.43;82.07
84936;BME280;75210;52.210;20.902;2024-03-08T03:30:12;101170.13;;;-1.38;82.79
84936;BME280;75210;52.210;20.902;2024-03-08T03:31:13;101175.25;;;-1.41;83.32
84936;BME280;75210;52.210;20.902;2024-03-08T03:32:14;101155.25;;;-1.57;83.66
84936;BME280;75210;52.210;20.902;2024-03-08T03:33:14;101175.19;;;-1.46;83.60
84936;BME280;75210;52.210;20.902;2024-03-08T03:34:15;101154.41;;;-1.56;83.66
84936;BME280;75210;52.210;20.902;2024-03-08T03:35:16;101169.13;;;-1.48;83.44
84936;BME280;75210;52.210;20.902;2024-03-08T03:36:18;101104.09;;;-1.89;83.46
84936;BME280;75210;52.210;20.902;2024-03-08T03:37:19;101137.91;;;-1.69;83.57
84936;BME280;75210;52.210;20.902;2024-03-08T03:38:19;101171.72;;;-1.51;83.74
84936;BME280;75210;52.210;20.902;2024-03-08T03:39:20;101175.19;;;-1.49;83.65
84936;BME280;75210;52.210;20.902;2024-03-08T03:40:20;101138.81;;;-1.64;83.38
84936;BME280;75210;52.210;20.902;2024-03-08T03:41:20;101168.31;;;-1.45;83.29
84936;BME280;75210;52.210;20.902;2024-03-08T03:42:21;101168.31;;;-1.45;83.18
84936;BME280;75210;52.210;20.902;2024-03-08T03:43:21;101169.16;;;-1.46;83.50
84936;BME280;75210;52.210;20.902;2024-03-08T03:44:22;101170.88;;;-1.47;83.01
84936;BME280;75210;52.210;20.902;2024-03-08T03:45:28;101128.41;;;-1.70;83.40
84936;BME280;75210;52.210;20.902;2024-03-08T03:46:28;101171.75;;;-1.49;83.17
84936;BME280;75210;52.210;20.902;2024-03-08T03:47:29;101158.78;;;-1.51;82.74
84936;BME280;75210;52.210;20.902;2024-03-08T03:48:29;101130.94;;;-1.73;82.98
84936;BME280;75210;52.210;20.902;2024-03-08T03:49:29;101164.78;;;-1.55;82.63
84936;BME280;75210;52.210;20.902;2024-03-08T03:50:30;101165.63;;;-1.54;82.96
84936;BME280;75210;52.210;20.902;2024-03-08T03:51:32;101163.91;;;-1.55;82.74
84936;BME280;75210;52.210;20.902;2024-03-08T03:52:32;101158.72;;;-1.55;83.22
84936;BME280;75210;52.210;20.902;2024-03-08T03:53:33;101144.84;;;-1.65;82.97
84936;BME280;75210;52.210;20.902;2024-03-08T03:54:33;101092.81;;;-1.94;82.77
84936;BME280;75210;52.210;20.902;2024-03-08T03:55:34;101150.06;;;-1.62;82.75
84936;BME280;75210;52.210;20.902;2024-03-08T03:56:34;101161.25;;;-1.60;83.23
84936;BME280;75210;52.210;20.902;2024-03-08T03:57:34;101159.56;;;-1.58;83.29
84936;BME280;75210;52.210;20.902;2024-03-08T03:58:35;101150.09;;;-1.57;82.72
84936;BME280;75210;52.210;20.902;2024-03-08T03:59:35;101142.25;;;-1.65;82.65
84936;BME280;75210;52.210;20.902;2024-03-08T04:00:36;101147.47;;;-1.62;82.72
84936;BME280;75210;52.210;20.902;2024-03-08T04:01:36;101151.81;;;-1.56;82.96
84936;BME280;75210;52.210;20.902;2024-03-08T04:02:37;101156.97;;;-1.58;82.86
84936;BME280;75210;52.210;20.902;2024-03-08T04:03:40;101157.81;;;-1.60;82.37
84936;BME280;75210;52.210;20.902;2024-03-08T04:04:41;101146.63;;;-1.58;82.60
84936;BME280;75210;52.210;20.902;2024-03-08T04:05:41;101151.81;;;-1.58;82.93
84936;BME280;75210;52.210;20.902;2024-03-08T04:06:44;101154.38;;;-1.58;83.01
84936;BME280;75210;52.210;20.902;2024-03-08T04:07:45;101150.94;;;-1.57;82.84
84936;BME280;75210;52.210;20.902;2024-03-08T04:08:45;101155.28;;;-1.54;82.55
84936;BME280;75210;52.210;20.902;2024-03-08T04:09:46;101153.56;;;-1.55;82.80
84936;BME280;75210;52.210;20.902;2024-03-08T04:10:46;101075.50;;;-2.04;82.70
84936;BME280;75210;52.210;20.902;2024-03-08T04:11:47;101155.25;;;-1.57;83.10
84936;BME280;75210;52.210;20.902;2024-03-08T04:12:47;101152.63;;;-1.63;83.14
84936;BME280;75210;52.210;20.902;2024-03-08T04:13:48;101152.59;;;-1.66;83.21
84936;BME280;75210;52.210;20.902;2024-03-08T04:14:48;101136.13;;;-1.74;82.91
84936;BME280;75210;52.210;20.902;2024-03-08T04:15:49;101011.38;;;-2.41;83.09
84936;BME280;75210;52.210;20.902;2024-03-08T04:16:49;101152.66;;;-1.62;82.76
84936;BME280;75210;52.210;20.902;2024-03-08T04:17:49;101137.06;;;-1.66;82.44
84936;BME280;75210;52.210;20.902;2024-03-08T04:18:50;101142.28;;;-1.63;82.82
84936;BME280;75210;52.210;20.902;2024-03-08T04:19:50;101151.78;;;-1.59;82.63
84936;BME280;75210;52.210;20.902;2024-03-08T04:20:51;101147.47;;;-1.59;82.79
84936;BME280;75210;52.210;20.902;2024-03-08T04:21:53;101150.94;;;-1.61;82.93
84936;BME280;75210;52.210;20.902;2024-03-08T04:22:53;101154.38;;;-1.61;82.40
84936;BME280;75210;52.210;20.902;2024-03-08T04:23:54;101152.66;;;-1.62;82.72
84936;BME280;75210;52.210;20.902;2024-03-08T04:24:54;101148.31;;;-1.63;82.60
84936;BME280;75210;52.210;20.902;2024-03-08T04:25:54;101079.78;;;-2.04;82.52
84936;BME280;75210;52.210;20.902;2024-03-08T04:26:55;101142.25;;;-1.65;82.80
84936;BME280;75210;52.210;20.902;2024-03-08T04:27:55;101146.59;;;-1.64;82.79
84936;BME280;75210;52.210;20.902;2024-03-08T04:28:56;101153.41;;;-1.69;83.27
84936;BME280;75210;52.210;20.902;2024-03-08T04:29:56;101148.25;;;-1.69;82.94
84936;BME280;75210;52.210;20.902;2024-03-08T04:30:56;101145.63;;;-1.70;83.18
84936;BME280;75210;52.210;20.902;2024-03-08T04:31:57;101145.63;;;-1.70;82.93
84936;BME280;75210;52.210;20.902;2024-03-08T04:32:57;101134.38;;;-1.77;82.98
84936;BME280;75210;52.210;20.902;2024-03-08T04:33:58;101119.63;;;-1.87;83.16
84936;BME280;75210;52.210;20.902;2024-03-08T04:34:58;101135.22;;;-1.78;83.19
84936;BME280;75210;52.210;20.902;2024-03-08T04:35:59;101149.09;;;-1.70;83.02
84936;BME280;75210;52.210;20.902;2024-03-08T04:37:01;101124.84;;;-1.81;83.05
84936;BME280;75210;52.210;20.902;2024-03-08T04:38:02;101108.38;;;-1.91;83.08
84936;BME280;75210;52.210;20.902;2024-03-08T04:39:02;101128.34;;;-1.76;82.98
84936;BME280;75210;52.210;20.902;2024-03-08T04:40:04;101152.56;;;-1.68;82.86
84936;BME280;75210;52.210;20.902;2024-03-08T04:41:04;101086.69;;;-2.03;82.72
84936;BME280;75210;52.210;20.902;2024-03-08T04:42:05;101139.63;;;-1.69;82.74
84936;BME280;75210;52.210;20.902;2024-03-08T04:43:06;101123.16;;;-1.79;82.41
84936;BME280;75210;52.210;20.902;2024-03-08T04:44:07;101126.56;;;-1.80;82.79
84936;BME280;75210;52.210;20.902;2024-03-08T04:45:09;101121.44;;;-1.77;82.50
84936;BME280;75210;52.210;20.902;2024-03-08T04:46:09;101137.97;;;-1.64;82.54
84936;BME280;75210;52.210;20.902;2024-03-08T04:47:10;101144.00;;;-1.64;82.33
84936;BME280;75210;52.210;20.902;2024-03-08T04:48:10;101143.13;;;-1.64;82.49
84936;BME280;75210;52.210;20.902;2024-03-08T04:49:12;101125.78;;;-1.73;81.95
84936;BME280;75210;52.210;20.902;2024-03-08T04:50:13;101142.28;;;-1.62;82.42
84936;BME280;75210;52.210;20.902;2024-03-08T04:51:13;101142.28;;;-1.63;82.25
84936;BME280;75210;52.210;20.902;2024-03-08T04:52:16;101140.53;;;-1.66;82.28
84936;BME280;75210;52.210;20.902;2024-03-08T04:53:16;101137.91;;;-1.67;81.93
84936;BME280;75210;52.210;20.902;2024-03-08T04:54:16;101088.38;;;-2.07;82.29
84936;BME280;75210;52.210;20.902;2024-03-08T04:55:17;101122.25;;;-1.83;82.08
84936;BME280;75210;52.210;20.902;2024-03-08T04:56:17;101132.59;;;-1.81;82.33
84936;BME280;75210;52.210;20.902;2024-03-08T04:57:18;101104.00;;;-1.96;82.22
84936;BME280;75210;52.210;20.902;2024-03-08T04:58:18;101146.47;;;-1.74;82.01
84936;BME280;75210;52.210;20.902;2024-03-08T04:59:18;101137.78;;;-1.79;82.12
84936;BME280;75210;52.210;20.902;2024-03-08T05:00:19;101111.81;;;-1.92;82.28
84936;BME280;75210;52.210;20.902;2024-03-08T05:01:19;101148.19;;;-1.72;82.36
84936;BME280;75210;52.210;20.902;2024-03-08T05:02:20;101155.97;;;-1.70;82.47
84936;BME280;75210;52.210;20.902;2024-03-08T05:03:20;101152.53;;;-1.69;82.09
84936;BME280;75210;52.210;20.902;2024-03-08T05:04:21;101149.06;;;-1.71;82.46
84936;BME280;75210;52.210;20.902;2024-03-08T05:05:21;101125.63;;;-1.90;82.92
84936;BME280;75210;52.210;20.902;2024-03-08T05:06:22;101152.47;;;-1.77;82.81
84936;BME280;75210;52.210;20.902;2024-03-08T05:07:24;101142.13;;;-1.77;82.63
84936;BME280;75210;52.210;20.902;2024-03-08T05:08:24;101152.47;;;-1.77;82.75
84936;BME280;75210;52.210;20.902;2024-03-08T05:09:24;101145.59;;;-1.76;82.85
84936;BME280;75210;52.210;20.902;2024-03-08T05:10:26;101149.06;;;-1.74;82.48
84936;BME280;75210;52.210;20.902;2024-03-08T05:11:27;101147.31;;;-1.72;82.31
84936;BME280;75210;52.210;20.902;2024-03-08T05:12:29;101107.44;;;-1.99;82.32
84936;BME280;75210;52.210;20.902;2024-03-08T05:13:29;101143.06;;;-1.69;82.26